createdAt,value
2023-05-04T00:00:08.262Z,15.90
2023-05-04T00:00:20.346Z,15.90
2023-05-04T00:00:32.538Z,15.90
2023-05-04T00:00:44.334Z,15.90
2023-05-04T00:00:56.179Z,15.90
2023-05-04T00:01:11.171Z,15.90
2023-05-04T00:01:23.091Z,15.90
2023-05-04T00:01:34.898Z,15.90
2023-05-04T00:01:46.768Z,15.90
2023-05-04T00:01:58.612Z,15.90
2023-05-04T00:02:10.569Z,15.90
2023-05-04T00:02:22.447Z,15.90
2023-05-04T00:02:34.776Z,15.90
2023-05-04T00:02:46.719Z,15.90
2023-05-04T00:02:58.669Z,15.90
2023-05-04T00:03:10.860Z,15.90
2023-05-04T00:03:23.004Z,15.90
2023-05-04T00:03:35.098Z,15.90
2023-05-04T00:03:47.208Z,15.90
2023-05-04T00:03:59.331Z,15.90
2023-05-04T00:04:11.593Z,15.90
2023-05-04T00:04:23.654Z,15.90
2023-05-04T00:04:37.758Z,15.90
2023-05-04T00:04:52.183Z,15.90
2023-05-04T00:05:07.417Z,15.90
2023-05-04T00:05:19.377Z,15.90
2023-05-04T00:05:31.322Z,15.90
2023-05-04T00:05:43.153Z,15.90
2023-05-04T00:05:55.090Z,15.90
2023-05-04T00:06:07.084Z,15.90
2023-05-04T00:06:18.955Z,15.90
2023-05-04T00:06:31.116Z,15.90
2023-05-04T00:06:42.959Z,15.90
2023-05-04T00:06:54.748Z,15.90
2023-05-04T00:07:06.601Z,15.90
2023-05-04T00:07:18.822Z,15.80
2023-05-04T00:07:30.783Z,15.80
2023-05-04T00:07:42.576Z,15.80
2023-05-04T00:07:54.376Z,15.90
2023-05-04T00:08:06.219Z,15.90
2023-05-04T00:08:18.101Z,15.90
2023-05-04T00:08:31.436Z,15.90
2023-05-04T00:08:43.357Z,15.90
2023-05-04T00:08:55.224Z,15.90
2023-05-04T00:09:07.208Z,15.90
2023-05-04T00:09:19.257Z,15.80
2023-05-04T00:09:31.780Z,15.80
2023-05-04T00:09:43.579Z,15.80
2023-05-04T00:09:55.374Z,15.80
2023-05-04T00:10:08.108Z,15.80
2023-05-04T00:10:20.284Z,15.80
2023-05-04T00:10:32.223Z,15.80
2023-05-04T00:10:44.093Z,15.80
2023-05-04T00:10:56.408Z,15.80
2023-05-04T00:11:08.612Z,15.80
2023-05-04T00:11:20.684Z,15.80
2023-05-04T00:11:33.052Z,15.80
2023-05-04T00:11:44.987Z,15.80
2023-05-04T00:11:56.775Z,15.80
2023-05-04T00:12:08.528Z,15.80
2023-05-04T00:12:20.366Z,15.80
2023-05-04T00:12:32.214Z,15.80
2023-05-04T00:12:44.599Z,15.80
2023-05-04T00:12:56.749Z,15.80
2023-05-04T00:13:08.745Z,15.70
2023-05-04T00:13:20.557Z,15.70
2023-05-04T00:13:32.660Z,15.80
2023-05-04T00:13:44.477Z,15.70
2023-05-04T00:13:56.407Z,15.70
2023-05-04T00:14:08.418Z,15.80
2023-05-04T00:14:20.292Z,15.80
2023-05-04T00:14:32.087Z,15.80
2023-05-04T00:14:43.896Z,15.80
2023-05-04T00:14:55.864Z,15.80
2023-05-04T00:15:08.158Z,15.80
2023-05-04T00:15:20.492Z,15.80
2023-05-04T00:15:32.315Z,15.80
2023-05-04T00:15:44.271Z,15.80
2023-05-04T00:15:56.177Z,15.80
2023-05-04T00:16:10.619Z,15.70
2023-05-04T00:16:23.149Z,15.80
2023-05-04T00:16:35.669Z,15.80
2023-05-04T00:16:47.923Z,15.70
2023-05-04T00:16:59.817Z,15.70
2023-05-04T00:17:13.011Z,15.70
2023-05-04T00:17:24.836Z,15.70
2023-05-04T00:17:36.950Z,15.70
2023-05-04T00:17:48.871Z,15.70
2023-05-04T00:18:00.770Z,15.70
2023-05-04T00:18:12.570Z,15.70
2023-05-04T00:18:24.303Z,15.70
2023-05-04T00:18:36.321Z,15.70
2023-05-04T00:18:48.160Z,15.70
2023-05-04T00:18:59.914Z,15.70
2023-05-04T00:19:12.213Z,15.70
2023-05-04T00:19:24.059Z,15.60
2023-05-04T00:19:36.207Z,15.60
2023-05-04T00:19:48.059Z,15.60
2023-05-04T00:19:59.875Z,15.70
2023-05-04T00:20:13.565Z,15.60
2023-05-04T00:20:25.434Z,15.60
2023-05-04T00:20:37.538Z,15.60
2023-05-04T00:20:49.386Z,15.60
2023-05-04T00:21:01.460Z,15.60
2023-05-04T00:21:13.447Z,15.70
2023-05-04T00:21:25.613Z,15.70
2023-05-04T00:21:37.378Z,15.60
2023-05-04T00:21:49.182Z,15.70
2023-05-04T00:22:01.228Z,15.60
2023-05-04T00:22:13.181Z,15.60
2023-05-04T00:22:25.117Z,15.60
2023-05-04T00:22:36.981Z,15.60
2023-05-04T00:22:49.034Z,15.70
2023-05-04T00:23:01.115Z,15.60
2023-05-04T00:23:13.109Z,15.60
2023-05-04T00:23:25.029Z,15.60
2023-05-04T00:23:36.881Z,15.70
2023-05-04T00:23:48.749Z,15.70
2023-05-04T00:24:02.048Z,15.60
2023-05-04T00:24:13.896Z,15.70
2023-05-04T00:24:25.893Z,15.70
2023-05-04T00:24:37.723Z,15.70
2023-05-04T00:24:49.555Z,15.60
2023-05-04T00:25:01.353Z,15.60
2023-05-04T00:25:13.241Z,15.60
2023-05-04T00:25:25.070Z,15.60
2023-05-04T00:25:37.033Z,15.60
2023-05-04T00:25:48.887Z,15.60
2023-05-04T00:26:00.861Z,15.60
2023-05-04T00:26:12.755Z,15.60
2023-05-04T00:26:24.768Z,15.60
2023-05-04T00:26:36.856Z,15.60
2023-05-04T00:26:48.772Z,15.60
2023-05-04T00:27:00.623Z,15.60
2023-05-04T00:27:12.803Z,15.60
2023-05-04T00:27:24.624Z,15.60
2023-05-04T00:27:36.430Z,15.50
2023-05-04T00:27:48.207Z,15.50
2023-05-04T00:28:00.033Z,15.60
2023-05-04T00:28:11.960Z,15.60
2023-05-04T00:28:23.996Z,15.60
2023-05-04T00:28:35.994Z,15.60
2023-05-04T00:28:47.972Z,15.60
2023-05-04T00:28:59.935Z,15.60
2023-05-04T00:29:11.990Z,15.60
2023-05-04T00:29:24.047Z,15.50
2023-05-04T00:29:36.082Z,15.50
2023-05-04T00:29:47.905Z,15.50
2023-05-04T00:29:59.706Z,15.50
2023-05-04T00:30:11.858Z,15.50
2023-05-04T00:30:24.126Z,15.50
2023-05-04T00:30:36.114Z,15.50
2023-05-04T00:30:47.999Z,15.50
2023-05-04T00:30:59.878Z,15.50
2023-05-04T00:31:11.802Z,15.50
2023-05-04T00:31:23.816Z,15.50
2023-05-04T00:31:35.775Z,15.50
2023-05-04T00:31:47.776Z,15.50
2023-05-04T00:31:59.888Z,15.50
2023-05-04T00:32:11.706Z,15.50
2023-05-04T00:32:23.603Z,15.50
2023-05-04T00:32:35.542Z,15.50
2023-05-04T00:32:47.413Z,15.50
2023-05-04T00:32:59.410Z,15.50
2023-05-04T00:33:11.237Z,15.50
2023-05-04T00:33:23.211Z,15.50
2023-05-04T00:33:35.071Z,15.40
2023-05-04T00:33:46.957Z,15.50
2023-05-04T00:33:58.764Z,15.40
2023-05-04T00:34:10.587Z,15.40
2023-05-04T00:34:22.445Z,15.40
2023-05-04T00:34:34.349Z,15.40
2023-05-04T00:34:46.355Z,15.40
2023-05-04T00:34:59.803Z,15.40
2023-05-04T00:35:12.667Z,15.40
2023-05-04T00:35:25.400Z,15.40
2023-05-04T00:35:37.683Z,15.40
2023-05-04T00:35:49.533Z,15.40
2023-05-04T00:36:03.682Z,15.40
2023-05-04T00:36:15.676Z,15.40
2023-05-04T00:36:27.549Z,15.40
2023-05-04T00:36:39.538Z,15.40
2023-05-04T00:36:51.393Z,15.40
2023-05-04T00:37:03.242Z,15.40
2023-05-04T00:37:15.055Z,15.40
2023-05-04T00:37:26.849Z,15.40
2023-05-04T00:37:38.693Z,15.40
2023-05-04T00:37:50.499Z,15.40
2023-05-04T00:38:03.604Z,15.40
2023-05-04T00:38:16.857Z,15.40
2023-05-04T00:38:28.680Z,15.40
2023-05-04T00:38:50.152Z,15.40
2023-05-04T00:39:02.083Z,15.40
2023-05-04T00:39:13.856Z,15.40
2023-05-04T00:39:25.705Z,15.30
2023-05-04T00:39:37.510Z,15.30
2023-05-04T00:39:49.384Z,15.30
2023-05-04T00:40:01.126Z,15.30
2023-05-04T00:40:13.102Z,15.30
2023-05-04T00:40:24.942Z,15.30
2023-05-04T00:40:36.787Z,15.30
2023-05-04T00:40:49.215Z,15.30
2023-05-04T00:41:01.243Z,15.30
2023-05-04T00:41:13.040Z,15.30
2023-05-04T00:41:24.825Z,15.30
2023-05-04T00:41:36.865Z,15.30
2023-05-04T00:41:48.745Z,15.30
2023-05-04T00:42:00.633Z,15.30
2023-05-04T00:42:12.526Z,15.30
2023-05-04T00:42:24.493Z,15.30
2023-05-04T00:42:36.260Z,15.30
2023-05-04T00:42:48.108Z,15.30
2023-05-04T00:42:59.954Z,15.30
2023-05-04T00:43:11.800Z,15.30
2023-05-04T00:43:23.705Z,15.30
2023-05-04T00:43:35.594Z,15.30
2023-05-04T00:43:47.465Z,15.30
2023-05-04T00:43:59.895Z,15.30
2023-05-04T00:44:11.661Z,15.30
2023-05-04T00:44:26.415Z,15.30
2023-05-04T00:44:41.464Z,15.30
2023-05-04T00:44:53.282Z,15.20
2023-05-04T00:45:05.561Z,15.20
2023-05-04T00:45:17.676Z,15.30
2023-05-04T00:45:29.435Z,15.20
2023-05-04T00:45:41.849Z,15.20
2023-05-04T00:45:54.203Z,15.20
2023-05-04T00:46:06.092Z,15.20
2023-05-04T00:46:17.947Z,15.20
2023-05-04T00:46:30.551Z,15.20
2023-05-04T00:46:42.492Z,15.20
2023-05-04T00:46:54.320Z,15.30
2023-05-04T00:47:06.380Z,15.20
2023-05-04T00:47:19.673Z,15.20
2023-05-04T00:47:31.730Z,15.20
2023-05-04T00:47:43.533Z,15.20
2023-05-04T00:47:55.348Z,15.20
2023-05-04T00:48:07.231Z,15.20
2023-05-04T00:48:19.035Z,15.20
2023-05-04T00:48:31.224Z,15.20
2023-05-04T00:48:43.418Z,15.20
2023-05-04T00:48:55.241Z,15.20
2023-05-04T00:49:07.387Z,15.20
2023-05-04T00:49:19.298Z,15.20
2023-05-04T00:49:31.264Z,15.20
2023-05-04T00:49:43.091Z,15.20
2023-05-04T00:49:54.908Z,15.20
2023-05-04T00:50:07.621Z,15.20
2023-05-04T00:50:19.991Z,15.20
2023-05-04T00:50:31.803Z,15.20
2023-05-04T00:50:43.700Z,15.20
2023-05-04T00:50:55.507Z,15.10
2023-05-04T00:51:07.888Z,15.10
2023-05-04T00:51:20.900Z,15.10
2023-05-04T00:51:32.692Z,15.10
2023-05-04T00:51:44.433Z,15.10
2023-05-04T00:51:56.214Z,15.10
2023-05-04T00:52:08.104Z,15.10
2023-05-04T00:52:19.935Z,15.10
2023-05-04T00:52:31.764Z,15.10
2023-05-04T00:52:43.971Z,15.10
2023-05-04T00:52:56.508Z,15.20
2023-05-04T00:53:09.628Z,15.10
2023-05-04T00:53:21.373Z,15.10
2023-05-04T00:53:33.324Z,15.10
2023-05-04T00:53:45.145Z,15.10
2023-05-04T00:53:57.287Z,15.10
2023-05-04T00:54:09.151Z,15.10
2023-05-04T00:54:21.019Z,15.10
2023-05-04T00:54:33.188Z,15.10
2023-05-04T00:54:45.103Z,15.10
2023-05-04T00:54:56.939Z,15.10
2023-05-04T00:55:10.225Z,15.10
2023-05-04T00:55:22.480Z,15.10
2023-05-04T00:55:34.428Z,15.10
2023-05-04T00:55:46.201Z,15.10
2023-05-04T00:55:57.947Z,15.10
2023-05-04T00:56:09.883Z,15.10
2023-05-04T00:56:23.861Z,15.10
2023-05-04T00:56:42.176Z,15.10
2023-05-04T00:56:54.119Z,15.10
2023-05-04T00:57:06.011Z,15.10
2023-05-04T00:57:17.957Z,15.10
2023-05-04T00:57:29.758Z,15.10
2023-05-04T00:57:41.614Z,15.10
2023-05-04T00:57:53.597Z,15.00
2023-05-04T00:58:05.554Z,15.10
2023-05-04T00:58:17.329Z,15.10
2023-05-04T00:58:29.210Z,15.10
2023-05-04T00:58:40.982Z,15.10
2023-05-04T00:58:54.435Z,15.10
2023-05-04T00:59:06.386Z,15.10
2023-05-04T00:59:18.176Z,15.00
2023-05-04T00:59:29.950Z,15.00
2023-05-04T00:59:41.813Z,15.10
2023-05-04T00:59:54.249Z,15.00
2023-05-04T01:00:07.552Z,15.00
2023-05-04T01:00:19.720Z,15.00
2023-05-04T01:00:31.926Z,15.00
2023-05-04T01:00:43.770Z,15.00
2023-05-04T01:00:55.945Z,15.10
2023-05-04T01:01:08.396Z,15.10
2023-05-04T01:01:23.161Z,15.00
2023-05-04T01:01:35.089Z,15.00
2023-05-04T01:01:47.010Z,15.10
2023-05-04T01:01:58.847Z,15.00
2023-05-04T01:02:10.792Z,15.00
2023-05-04T01:02:22.683Z,15.00
2023-05-04T01:02:35.078Z,15.00
2023-05-04T01:02:49.129Z,15.00
2023-05-04T01:03:00.996Z,15.10
2023-05-04T01:03:12.839Z,15.00
2023-05-04T01:03:25.238Z,15.00
2023-05-04T01:03:37.072Z,15.10
2023-05-04T01:03:52.162Z,15.10
2023-05-04T01:04:04.281Z,15.10
2023-05-04T01:04:16.462Z,15.10
2023-05-04T01:04:28.258Z,15.10
2023-05-04T01:04:40.144Z,15.10
2023-05-04T01:04:52.012Z,15.10
2023-05-04T01:05:04.143Z,15.10
2023-05-04T01:05:16.206Z,15.10
2023-05-04T01:05:30.807Z,15.10
2023-05-04T01:06:21.889Z,15.10
2023-05-04T01:06:48.559Z,15.10
2023-05-04T01:07:21.181Z,15.10
2023-05-04T01:07:49.654Z,15.00
2023-05-04T01:08:06.644Z,15.00
2023-05-04T01:08:19.498Z,15.00
2023-05-04T01:08:32.256Z,15.00
2023-05-04T01:08:50.918Z,15.00
2023-05-04T01:09:22.438Z,15.00
2023-05-04T01:09:46.410Z,15.00
2023-05-04T01:10:02.027Z,15.00
2023-05-04T01:10:17.831Z,15.00
2023-05-04T01:10:39.269Z,15.00
2023-05-04T01:11:00.817Z,15.00
2023-05-04T01:11:21.286Z,15.00
2023-05-04T01:11:44.659Z,15.00
2023-05-04T01:12:14.734Z,15.00
2023-05-04T01:12:32.065Z,15.00
2023-05-04T01:13:11.453Z,14.90
2023-05-04T01:13:23.363Z,14.90
2023-05-04T01:13:35.983Z,14.90
2023-05-04T01:13:48.284Z,14.90
2023-05-04T01:14:01.028Z,14.80
2023-05-04T01:14:12.958Z,14.80
2023-05-04T01:14:24.763Z,14.80
2023-05-04T01:14:36.783Z,14.80
2023-05-04T01:14:48.623Z,14.80
2023-05-04T01:15:00.385Z,14.80
2023-05-04T01:15:12.391Z,14.80
2023-05-04T01:15:24.738Z,14.80
2023-05-04T01:15:36.822Z,14.80
2023-05-04T01:15:49.307Z,14.80
2023-05-04T01:16:01.053Z,14.80
2023-05-04T01:16:12.890Z,14.80
2023-05-04T01:16:26.945Z,14.80
2023-05-04T01:16:38.847Z,14.80
2023-05-04T01:16:54.175Z,14.80
2023-05-04T01:17:06.984Z,14.80
2023-05-04T01:17:18.853Z,14.80
2023-05-04T01:17:30.791Z,14.80
2023-05-04T01:17:42.694Z,14.80
2023-05-04T01:17:54.974Z,14.80
2023-05-04T01:18:07.094Z,14.80
2023-05-04T01:18:19.016Z,14.80
2023-05-04T01:18:31.126Z,14.80
2023-05-04T01:18:42.983Z,14.80
2023-05-04T01:18:54.786Z,14.80
2023-05-04T01:19:06.630Z,14.80
2023-05-04T01:19:18.460Z,14.80
2023-05-04T01:19:31.748Z,14.80
2023-05-04T01:19:43.621Z,14.80
2023-05-04T01:19:55.984Z,14.80
2023-05-04T01:20:09.542Z,14.80
2023-05-04T01:20:21.477Z,14.80
2023-05-04T01:20:33.417Z,14.80
2023-05-04T01:20:45.224Z,14.70
2023-05-04T01:20:57.274Z,14.70
2023-05-04T01:21:09.983Z,14.80
2023-05-04T01:21:21.806Z,14.80
2023-05-04T01:21:33.649Z,14.70
2023-05-04T01:21:45.467Z,14.80
2023-05-04T01:21:57.343Z,14.70
2023-05-04T01:22:09.355Z,14.70
2023-05-04T01:22:22.009Z,14.70
2023-05-04T01:22:33.803Z,14.70
2023-05-04T01:22:45.649Z,14.70
2023-05-04T01:22:57.597Z,14.70
2023-05-04T01:23:09.952Z,14.70
2023-05-04T01:23:22.946Z,14.70
2023-05-04T01:23:34.787Z,14.70
2023-05-04T01:23:46.561Z,14.70
2023-05-04T01:23:58.954Z,14.70
2023-05-04T01:24:10.860Z,14.70
2023-05-04T01:24:24.283Z,14.70
2023-05-04T01:24:36.174Z,14.70
2023-05-04T01:24:48.173Z,14.70
2023-05-04T01:25:00.047Z,14.70
2023-05-04T01:25:11.851Z,14.70
2023-05-04T01:25:25.078Z,14.70
2023-05-04T01:25:44.766Z,14.70
2023-05-04T01:26:12.966Z,14.70
2023-05-04T01:26:27.639Z,14.70
2023-05-04T01:26:39.878Z,14.70
2023-05-04T01:26:55.449Z,14.80
2023-05-04T01:27:14.303Z,14.70
2023-05-04T01:27:36.472Z,14.70
2023-05-04T01:27:55.842Z,14.70
2023-05-04T01:28:10.401Z,14.70
2023-05-04T01:28:30.067Z,14.70
2023-05-04T01:28:46.440Z,14.70
2023-05-04T01:29:03.338Z,14.70
2023-05-04T01:29:29.980Z,14.70
2023-05-04T01:29:52.508Z,14.70
2023-05-04T01:30:14.678Z,14.70
2023-05-04T01:30:30.075Z,14.70
2023-05-04T01:30:45.623Z,14.70
2023-05-04T01:30:57.750Z,14.60
2023-05-04T01:31:10.188Z,14.60
2023-05-04T01:31:23.377Z,14.60
2023-05-04T01:31:35.736Z,14.60
2023-05-04T01:31:47.623Z,14.60
2023-05-04T01:31:59.403Z,14.60
2023-05-04T01:32:12.221Z,14.60
2023-05-04T01:32:24.124Z,14.60
2023-05-04T01:32:36.605Z,14.60
2023-05-04T01:32:48.865Z,14.70
2023-05-04T01:33:00.993Z,14.70
2023-05-04T01:33:12.876Z,14.60
2023-05-04T01:33:24.673Z,14.60
2023-05-04T01:33:36.780Z,14.60
2023-05-04T01:33:49.558Z,14.60
2023-05-04T01:34:01.415Z,14.60
2023-05-04T01:34:13.727Z,14.60
2023-05-04T01:34:26.081Z,14.60
2023-05-04T01:34:37.885Z,14.60
2023-05-04T01:34:49.767Z,14.60
2023-05-04T01:35:01.636Z,14.70
2023-05-04T01:35:14.181Z,14.60
2023-05-04T01:35:26.105Z,14.60
2023-05-04T01:35:38.090Z,14.60
2023-05-04T01:35:49.952Z,14.60
2023-05-04T01:36:01.820Z,14.60
2023-05-04T01:36:13.611Z,14.60
2023-05-04T01:36:25.580Z,14.60
2023-05-04T01:36:37.437Z,14.60
2023-05-04T01:36:49.527Z,14.60
2023-05-04T01:37:01.313Z,14.60
2023-05-04T01:37:13.232Z,14.60
2023-05-04T01:37:25.570Z,14.60
2023-05-04T01:37:37.547Z,14.60
2023-05-04T01:37:49.332Z,14.70
2023-05-04T01:38:01.325Z,14.60
2023-05-04T01:38:13.328Z,14.60
2023-05-04T01:38:25.115Z,14.60
2023-05-04T01:38:37.002Z,14.60
2023-05-04T01:38:49.467Z,14.60
2023-05-04T01:39:01.308Z,14.60
2023-05-04T01:39:13.220Z,14.60
2023-05-04T01:39:25.060Z,14.60
2023-05-04T01:39:39.074Z,14.60
2023-05-04T01:39:50.888Z,14.60
2023-05-04T01:40:02.973Z,14.60
2023-05-04T01:40:15.806Z,14.60
2023-05-04T01:40:27.557Z,14.60
2023-05-04T01:40:39.333Z,14.60
2023-05-04T01:40:51.102Z,14.60
2023-05-04T01:41:03.016Z,14.60
2023-05-04T01:41:15.029Z,14.60
2023-05-04T01:41:30.255Z,14.60
2023-05-04T01:41:42.275Z,14.60
2023-05-04T01:41:54.061Z,14.60
2023-05-04T01:42:07.358Z,14.60
2023-05-04T01:42:19.167Z,14.60
2023-05-04T01:42:31.048Z,14.50
2023-05-04T01:42:42.772Z,14.60
2023-05-04T01:42:54.590Z,14.60
2023-05-04T01:43:06.559Z,14.60
2023-05-04T01:43:18.334Z,14.50
2023-05-04T01:43:30.139Z,14.60
2023-05-04T01:43:42.015Z,14.50
2023-05-04T01:43:54.391Z,14.60
2023-05-04T01:44:06.318Z,14.50
2023-05-04T01:44:18.114Z,14.50
2023-05-04T01:44:29.939Z,14.50
2023-05-04T01:44:41.732Z,14.50
2023-05-04T01:44:53.635Z,14.50
2023-05-04T01:45:06.525Z,14.50
2023-05-04T01:45:18.573Z,14.50
2023-05-04T01:45:30.601Z,14.50
2023-05-04T01:45:42.486Z,14.50
2023-05-04T01:45:54.365Z,14.50
2023-05-04T01:46:06.461Z,14.60
2023-05-04T01:46:18.364Z,14.50
2023-05-04T01:46:30.376Z,14.50
2023-05-04T01:46:42.415Z,14.50
2023-05-04T01:46:54.263Z,14.50
2023-05-04T01:47:06.322Z,14.50
2023-05-04T01:47:18.127Z,14.50
2023-05-04T01:47:30.202Z,14.50
2023-05-04T01:47:42.205Z,14.50
2023-05-04T01:47:54.261Z,14.50
2023-05-04T01:48:06.781Z,14.50
2023-05-04T01:48:18.666Z,14.50
2023-05-04T01:48:30.502Z,14.60
2023-05-04T01:48:42.352Z,14.50
2023-05-04T01:48:54.170Z,14.60
2023-05-04T01:49:07.142Z,14.50
2023-05-04T01:49:18.993Z,14.50
2023-05-04T01:49:30.924Z,14.50
2023-05-04T01:49:42.711Z,14.50
2023-05-04T01:49:54.568Z,14.50
2023-05-04T01:50:07.117Z,14.50
2023-05-04T01:50:19.483Z,14.50
2023-05-04T01:50:31.305Z,14.50
2023-05-04T01:50:43.088Z,14.50
2023-05-04T01:50:54.891Z,14.50
2023-05-04T01:51:06.774Z,14.50
2023-05-04T01:51:18.586Z,14.50
2023-05-04T01:51:30.398Z,14.50
2023-05-04T01:51:42.251Z,14.50
2023-05-04T01:51:54.062Z,14.50
2023-05-04T01:52:05.874Z,14.50
2023-05-04T01:52:17.649Z,14.50
2023-05-04T01:52:29.593Z,14.50
2023-05-04T01:52:41.396Z,14.40
2023-05-04T01:52:53.203Z,14.40
2023-05-04T01:53:05.181Z,14.40
2023-05-04T01:53:17.063Z,14.40
2023-05-04T01:53:28.901Z,14.50
2023-05-04T01:53:40.928Z,14.50
2023-05-04T01:53:52.773Z,14.50
2023-05-04T01:54:04.613Z,14.50
2023-05-04T01:54:16.444Z,14.40
2023-05-04T01:54:28.404Z,14.40
2023-05-04T01:54:40.264Z,14.50
2023-05-04T01:54:52.049Z,14.40
2023-05-04T01:55:04.141Z,14.50
2023-05-04T01:55:16.146Z,14.50
2023-05-04T01:55:27.898Z,14.40
2023-05-04T01:55:39.715Z,14.40
2023-05-04T01:55:51.490Z,14.50
2023-05-04T01:56:03.432Z,14.50
2023-05-04T01:56:15.337Z,14.40
2023-05-04T01:56:27.213Z,14.50
2023-05-04T01:56:39.006Z,14.50
2023-05-04T01:56:50.823Z,14.50
2023-05-04T01:57:02.576Z,14.50
2023-05-04T01:57:14.342Z,14.50
2023-05-04T01:57:26.191Z,14.50
2023-05-04T01:57:38.026Z,14.40
2023-05-04T01:57:49.817Z,14.50
2023-05-04T01:58:01.628Z,14.50
2023-05-04T01:58:13.539Z,14.40
2023-05-04T01:58:25.405Z,14.40
2023-05-04T01:58:37.168Z,14.40
2023-05-04T01:58:48.949Z,14.40
2023-05-04T01:59:00.762Z,14.40
2023-05-04T01:59:12.524Z,14.40
2023-05-04T01:59:24.388Z,14.40
2023-05-04T01:59:36.366Z,14.40
2023-05-04T01:59:48.158Z,14.40
2023-05-04T01:59:59.966Z,14.40
2023-05-04T02:00:12.302Z,14.40
2023-05-04T02:00:24.249Z,14.40
2023-05-04T02:00:36.161Z,14.40
2023-05-04T02:00:47.928Z,14.40
2023-05-04T02:00:59.724Z,14.40
2023-05-04T02:01:11.635Z,14.40
2023-05-04T02:01:23.551Z,14.40
2023-05-04T02:01:36.619Z,14.40
2023-05-04T02:01:48.957Z,14.40
2023-05-04T02:02:00.934Z,14.40
2023-05-04T02:02:12.883Z,14.30
2023-05-04T02:02:25.216Z,14.40
2023-05-04T02:02:37.192Z,14.40
2023-05-04T02:02:49.159Z,14.40
2023-05-04T02:03:01.010Z,14.30
2023-05-04T02:03:12.875Z,14.40
2023-05-04T02:03:25.875Z,14.40
2023-05-04T02:03:37.853Z,14.40
2023-05-04T02:03:49.837Z,14.40
2023-05-04T02:04:01.993Z,14.40
2023-05-04T02:04:14.047Z,14.40
2023-05-04T02:04:25.845Z,14.40
2023-05-04T02:04:37.779Z,14.40
2023-05-04T02:04:49.547Z,14.40
2023-05-04T02:05:02.366Z,14.40
2023-05-04T02:05:14.242Z,14.40
2023-05-04T02:05:26.222Z,14.40
2023-05-04T02:05:38.147Z,14.40
2023-05-04T02:05:49.974Z,14.30
2023-05-04T02:06:01.785Z,14.30
2023-05-04T02:06:13.869Z,14.30
2023-05-04T02:06:25.867Z,14.30
2023-05-04T02:06:37.730Z,14.30
2023-05-04T02:06:49.513Z,14.30
2023-05-04T02:07:01.473Z,14.30
2023-05-04T02:07:13.889Z,14.30
2023-05-04T02:07:25.912Z,14.30
2023-05-04T02:07:38.044Z,14.30
2023-05-04T02:07:49.884Z,14.30
2023-05-04T02:08:01.687Z,14.30
2023-05-04T02:08:13.556Z,14.30
2023-05-04T02:08:25.829Z,14.30
2023-05-04T02:08:38.165Z,14.30
2023-05-04T02:08:51.077Z,14.30
2023-05-04T02:09:03.621Z,14.30
2023-05-04T02:09:15.674Z,14.30
2023-05-04T02:09:27.461Z,14.30
2023-05-04T02:09:39.269Z,14.30
2023-05-04T02:09:51.027Z,14.30
2023-05-04T02:10:04.086Z,14.20
2023-05-04T02:10:16.246Z,14.30
2023-05-04T02:10:28.119Z,14.20
2023-05-04T02:10:40.086Z,14.20
2023-05-04T02:10:51.926Z,14.20
2023-05-04T02:11:03.745Z,14.20
2023-05-04T02:11:16.400Z,14.20
2023-05-04T02:11:28.213Z,14.20
2023-05-04T02:11:40.013Z,14.20
2023-05-04T02:11:51.773Z,14.20
2023-05-04T02:12:03.811Z,14.20
2023-05-04T02:12:15.634Z,14.20
2023-05-04T02:12:27.465Z,14.20
2023-05-04T02:12:39.402Z,14.20
2023-05-04T02:12:52.300Z,14.20
2023-05-04T02:13:04.218Z,14.20
2023-05-04T02:13:16.179Z,14.30
2023-05-04T02:13:28.004Z,14.30
2023-05-04T02:13:39.866Z,14.20
2023-05-04T02:13:51.614Z,14.30
2023-05-04T02:14:04.449Z,14.30
2023-05-04T02:14:16.297Z,14.30
2023-05-04T02:14:28.134Z,14.30
2023-05-04T02:14:39.942Z,14.30
2023-05-04T02:14:51.704Z,14.30
2023-05-04T02:15:03.926Z,14.30
2023-05-04T02:15:15.840Z,14.30
2023-05-04T02:15:27.662Z,14.30
2023-05-04T02:15:39.478Z,14.30
2023-05-04T02:15:51.324Z,14.30
2023-05-04T02:16:03.206Z,14.30
2023-05-04T02:16:15.066Z,14.30
2023-05-04T02:16:27.124Z,14.30
2023-05-04T02:16:39.930Z,14.30
2023-05-04T02:16:52.053Z,14.30
2023-05-04T02:17:03.798Z,14.30
2023-05-04T02:17:15.577Z,14.30
2023-05-04T02:17:27.765Z,14.30
2023-05-04T02:17:39.557Z,14.30
2023-05-04T02:17:51.480Z,14.30
2023-05-04T02:18:03.360Z,14.30
2023-05-04T02:18:15.294Z,14.30
2023-05-04T02:18:27.148Z,14.30
2023-05-04T02:18:38.921Z,14.30
2023-05-04T02:18:50.788Z,14.30
2023-05-04T02:19:02.603Z,14.30
2023-05-04T02:19:14.410Z,14.30
2023-05-04T02:19:26.848Z,14.30
2023-05-04T02:19:38.626Z,14.30
2023-05-04T02:19:50.596Z,14.30
2023-05-04T02:20:02.635Z,14.30
2023-05-04T02:20:15.893Z,14.30
2023-05-04T02:20:27.717Z,14.30
2023-05-04T02:20:39.505Z,14.30
2023-05-04T02:20:51.956Z,14.30
2023-05-04T02:21:03.937Z,14.30
2023-05-04T02:21:15.924Z,14.30
2023-05-04T02:21:27.886Z,14.30
2023-05-04T02:21:41.237Z,14.30
2023-05-04T02:21:53.084Z,14.30
2023-05-04T02:22:04.850Z,14.30
2023-05-04T02:22:16.893Z,14.30
2023-05-04T02:22:28.698Z,14.30
2023-05-04T02:22:41.029Z,14.30
2023-05-04T02:22:52.933Z,14.30
2023-05-04T02:23:04.756Z,14.30
2023-05-04T02:23:16.631Z,14.30
2023-05-04T02:23:28.452Z,14.30
2023-05-04T02:23:40.262Z,14.30
2023-05-04T02:23:52.346Z,14.30
2023-05-04T02:24:06.348Z,14.30
2023-05-04T02:24:18.314Z,14.30
2023-05-04T02:24:30.171Z,14.20
2023-05-04T02:24:42.018Z,14.30
2023-05-04T02:24:53.843Z,14.20
2023-05-04T02:25:07.647Z,14.30
2023-05-04T02:25:19.676Z,14.30
2023-05-04T02:25:31.529Z,14.30
2023-05-04T02:25:43.377Z,14.30
2023-05-04T02:25:55.988Z,14.30
2023-05-04T02:26:07.791Z,14.30
2023-05-04T02:26:19.809Z,14.20
2023-05-04T02:26:31.789Z,14.30
2023-05-04T02:26:43.741Z,14.30
2023-05-04T02:26:55.573Z,14.30
2023-05-04T02:27:07.443Z,14.30
2023-05-04T02:27:19.276Z,14.20
2023-05-04T02:27:31.295Z,14.20
2023-05-04T02:27:43.127Z,14.20
2023-05-04T02:27:54.994Z,14.20
2023-05-04T02:28:07.138Z,14.30
2023-05-04T02:28:18.939Z,14.20
2023-05-04T02:28:30.758Z,14.20
2023-05-04T02:28:43.074Z,14.30
2023-05-04T02:28:54.881Z,14.30
2023-05-04T02:29:06.743Z,14.20
2023-05-04T02:29:18.581Z,14.20
2023-05-04T02:29:30.422Z,14.20
2023-05-04T02:29:42.293Z,14.20
2023-05-04T02:29:54.394Z,14.20
2023-05-04T02:30:07.085Z,14.20
2023-05-04T02:30:19.243Z,14.20
2023-05-04T02:30:31.081Z,14.20
2023-05-04T02:30:42.994Z,14.20
2023-05-04T02:30:54.801Z,14.30
2023-05-04T02:31:06.808Z,14.20
2023-05-04T02:31:18.646Z,14.20
2023-05-04T02:31:30.605Z,14.20
2023-05-04T02:31:42.466Z,14.20
2023-05-04T02:31:56.813Z,14.20
2023-05-04T02:32:08.639Z,14.20
2023-05-04T02:32:20.425Z,14.20
2023-05-04T02:32:32.319Z,14.20
2023-05-04T02:32:44.259Z,14.20
2023-05-04T02:32:56.151Z,14.20
2023-05-04T02:33:08.155Z,14.10
2023-05-04T02:33:20.311Z,14.20
2023-05-04T02:33:32.135Z,14.20
2023-05-04T02:33:43.891Z,14.10
2023-05-04T02:33:55.695Z,14.10
2023-05-04T02:34:07.438Z,14.10
2023-05-04T02:34:19.357Z,14.20
2023-05-04T02:34:31.557Z,14.10
2023-05-04T02:34:43.505Z,14.10
2023-05-04T02:34:55.332Z,14.10
2023-05-04T02:35:07.605Z,14.10
2023-05-04T02:35:19.512Z,14.10
2023-05-04T02:35:31.454Z,14.10
2023-05-04T02:35:43.249Z,14.10
2023-05-04T02:35:55.521Z,14.10
2023-05-04T02:36:07.501Z,14.10
2023-05-04T02:36:19.292Z,14.10
2023-05-04T02:36:31.588Z,14.10
2023-05-04T02:36:43.382Z,14.10
2023-05-04T02:36:55.160Z,14.10
2023-05-04T02:37:07.688Z,14.10
2023-05-04T02:37:19.952Z,14.10
2023-05-04T02:37:31.759Z,14.10
2023-05-04T02:37:43.576Z,14.10
2023-05-04T02:37:55.446Z,14.10
2023-05-04T02:38:07.370Z,14.10
2023-05-04T02:38:19.178Z,14.10
2023-05-04T02:38:30.954Z,14.10
2023-05-04T02:38:42.731Z,14.10
2023-05-04T02:38:59.157Z,14.10
2023-05-04T02:39:11.031Z,14.10
2023-05-04T02:39:23.003Z,14.10
2023-05-04T02:39:34.744Z,14.10
2023-05-04T02:39:46.648Z,14.10
2023-05-04T02:39:58.499Z,14.10
2023-05-04T02:40:11.622Z,14.10
2023-05-04T02:40:23.397Z,14.10
2023-05-04T02:40:35.277Z,14.10
2023-05-04T02:40:47.198Z,14.10
2023-05-04T02:40:58.932Z,14.10
2023-05-04T02:41:10.825Z,14.00
2023-05-04T02:41:23.448Z,14.10
2023-05-04T02:41:35.254Z,14.10
2023-05-04T02:41:47.070Z,14.10